sensor_id;sensor_type;location;lat;lon;timestamp;P1;P2;P0
77413;PMS7003;66486;49.992;19.164;2023-03-14T00:00:25;25.80;23.80;15.20
77413;PMS7003;66486;49.992;19.164;2023-03-14T00:03:11;15.20;12.80;8.60
77413;PMS7003;66486;49.992;19.164;2023-03-14T00:05:37;17.60;15.00;10.00
77413;PMS7003;66486;49.992;19.164;2023-03-14T00:08:03;20.75;12.75;10.00
77413;PMS7003;66486;49.992;19.164;2023-03-14T00:10:30;10.00;10.00;6.60
77413;PMS7003;66486;49.992;19.164;2023-03-14T00:12:56;13.75;12.75;8.50
77413;PMS7003;66486;49.992;19.164;2023-03-14T00:15:22;14.40;12.40;9.00
77413;PMS7003;66486;49.992;19.164;2023-03-14T00:17:47;14.00;11.50;7.00
77413;PMS7003;66486;49.992;19.164;2023-03-14T00:20:14;10.80;9.80;7.00
77413;PMS7003;66486;49.992;19.164;2023-03-14T00:22:40;10.00;10.00;7.50
77413;PMS7003;66486;49.992;19.164;2023-03-14T00:25:09;9.20;9.20;6.20
77413;PMS7003;66486;49.992;19.164;2023-03-14T00:27:35;14.20;13.80;8.60
77413;PMS7003;66486;49.992;19.164;2023-03-14T00:30:02;15.80;13.00;9.80
77413;PMS7003;66486;49.992;19.164;2023-03-14T00:32:29;14.20;13.40;9.40
77413;PMS7003;66486;49.992;19.164;2023-03-14T00:34:55;13.20;11.20;6.80
77413;PMS7003;66486;49.992;19.164;2023-03-14T00:37:21;12.50;11.50;9.00
77413;PMS7003;66486;49.992;19.164;2023-03-14T00:39:47;17.40;17.00;11.60
77413;PMS7003;66486;49.992;19.164;2023-03-14T00:42:13;12.00;10.00;9.00
77413;PMS7003;66486;49.992;19.164;2023-03-14T00:44:40;22.20;20.80;13.00
77413;PMS7003;66486;49.992;19.164;2023-03-14T00:47:06;14.50;12.75;11.50
77413;PMS7003;66486;49.992;19.164;2023-03-14T00:49:32;23.40;17.00;10.80
77413;PMS7003;66486;49.992;19.164;2023-03-14T00:51:58;27.40;24.60;14.20
77413;PMS7003;66486;49.992;19.164;2023-03-14T00:54:24;22.40;19.80;12.00
77413;PMS7003;66486;49.992;19.164;2023-03-14T00:56:50;26.50;24.25;16.00
77413;PMS7003;66486;49.992;19.164;2023-03-14T00:59:16;27.80;27.80;18.40
77413;PMS7003;66486;49.992;19.164;2023-03-14T01:01:43;24.80;22.80;12.40
77413;PMS7003;66486;49.992;19.164;2023-03-14T01:04:09;31.20;28.40;15.60
77413;PMS7003;66486;49.992;19.164;2023-03-14T01:06:35;28.25;27.75;16.00
77413;PMS7003;66486;49.992;19.164;2023-03-14T01:09:01;35.40;32.40;21.60
77413;PMS7003;66486;49.992;19.164;2023-03-14T01:11:29;36.80;30.60;21.60
77413;PMS7003;66486;49.992;19.164;2023-03-14T01:13:57;33.00;30.80;16.80
77413;PMS7003;66486;49.992;19.164;2023-03-14T01:16:23;59.75;48.75;27.00
77413;PMS7003;66486;49.992;19.164;2023-03-14T01:18:51;51.80;46.00;26.00
77413;PMS7003;66486;49.992;19.164;2023-03-14T01:21:19;46.40;39.80;15.80
77413;PMS7003;66486;49.992;19.164;2023-03-14T01:23:48;39.40;34.40;21.60
77413;PMS7003;66486;49.992;19.164;2023-03-14T01:26:15;33.00;30.00;18.00
77413;PMS7003;66486;49.992;19.164;2023-03-14T01:28:46;47.20;45.00;25.80
77413;PMS7003;66486;49.992;19.164;2023-03-14T01:31:13;36.20;33.60;18.40
77413;PMS7003;66486;49.992;19.164;2023-03-14T01:33:40;38.20;35.60;20.60
77413;PMS7003;66486;49.992;19.164;2023-03-14T01:36:06;28.80;27.40;19.00
77413;PMS7003;66486;49.992;19.164;2023-03-14T01:38:33;28.60;26.00;18.00
77413;PMS7003;66486;49.992;19.164;2023-03-14T01:41:01;29.40;25.80;16.00
77413;PMS7003;66486;49.992;19.164;2023-03-14T01:43:27;23.60;21.00;15.60
77413;PMS7003;66486;49.992;19.164;2023-03-14T01:48:35;28.20;27.20;15.80
77413;PMS7003;66486;49.992;19.164;2023-03-14T01:51:10;25.60;25.60;18.00
77413;PMS7003;66486;49.992;19.164;2023-03-14T01:53:42;30.40;27.00;19.80
77413;PMS7003;66486;49.992;19.164;2023-03-14T01:56:10;29.00;27.60;15.40
77413;PMS7003;66486;49.992;19.164;2023-03-14T01:58:39;21.00;19.80;15.60
77413;PMS7003;66486;49.992;19.164;2023-03-14T02:01:08;25.00;24.80;14.80
77413;PMS7003;66486;49.992;19.164;2023-03-14T02:03:36;27.40;27.20;18.00
77413;PMS7003;66486;49.992;19.164;2023-03-14T02:06:10;23.40;20.80;13.80
77413;PMS7003;66486;49.992;19.164;2023-03-14T02:08:37;19.80;18.40;12.00
77413;PMS7003;66486;49.992;19.164;2023-03-14T02:11:05;23.60;22.80;16.40
77413;PMS7003;66486;49.992;19.164;2023-03-14T02:13:32;20.60;20.60;12.80
77413;PMS7003;66486;49.992;19.164;2023-03-14T02:15:58;20.75;19.75;15.25
77413;PMS7003;66486;49.992;19.164;2023-03-14T02:18:24;10.80;9.80;6.00
77413;PMS7003;66486;49.992;19.164;2023-03-14T02:20:53;3.00;3.00;1.40
77413;PMS7003;66486;49.992;19.164;2023-03-14T02:29:04;6.80;3.40;3.00
77413;PMS7003;66486;49.992;19.164;2023-03-14T02:31:30;3.00;3.00;3.00
77413;PMS7003;66486;49.992;19.164;2023-03-14T02:33:56;2.20;2.20;2.20
77413;PMS7003;66486;49.992;19.164;2023-03-14T02:36:23;2.20;2.20;2.20
77413;PMS7003;66486;49.992;19.164;2023-03-14T02:38:51;3.00;3.00;2.60
77413;PMS7003;66486;49.992;19.164;2023-03-14T02:41:22;3.00;3.00;3.00
77413;PMS7003;66486;49.992;19.164;2023-03-14T02:43:48;1.80;1.80;1.00
77413;PMS7003;66486;49.992;19.164;2023-03-14T02:46:18;3.00;1.00;1.00
77413;PMS7003;66486;49.992;19.164;2023-03-14T02:48:56;1.80;1.80;1.00
77413;PMS7003;66486;49.992;19.164;2023-03-14T02:51:27;3.20;3.20;1.80
77413;PMS7003;66486;49.992;19.164;2023-03-14T02:53:54;1.80;1.80;1.00
77413;PMS7003;66486;49.992;19.164;2023-03-14T02:56:20;1.00;1.00;1.00
77413;PMS7003;66486;49.992;19.164;2023-03-14T02:58:46;10.40;9.80;8.20
77413;PMS7003;66486;49.992;19.164;2023-03-14T03:01:12;14.50;12.50;10.00
77413;PMS7003;66486;49.992;19.164;2023-03-14T03:03:38;12.80;12.80;8.60
77413;PMS7003;66486;49.992;19.164;2023-03-14T03:06:04;12.00;11.00;6.25
77413;PMS7003;66486;49.992;19.164;2023-03-14T03:08:30;9.80;9.80;6.60
77413;PMS7003;66486;49.992;19.164;2023-03-14T03:10:57;12.60;12.60;9.40
77413;PMS7003;66486;49.992;19.164;2023-03-14T03:13:24;17.20;15.60;11.60
77413;PMS7003;66486;49.992;19.164;2023-03-14T03:15:51;18.80;18.80;13.80
77413;PMS7003;66486;49.992;19.164;2023-03-14T03:18:17;15.60;15.20;9.40
77413;PMS7003;66486;49.992;19.164;2023-03-14T03:20:43;15.60;15.60;12.40
77413;PMS7003;66486;49.992;19.164;2023-03-14T03:23:09;16.40;16.40;12.00
77413;PMS7003;66486;49.992;19.164;2023-03-14T03:25:35;23.00;19.00;15.00
77413;PMS7003;66486;49.992;19.164;2023-03-14T03:28:01;14.80;14.80;10.00
77413;PMS7003;66486;49.992;19.164;2023-03-14T03:30:27;19.50;18.00;13.00
77413;PMS7003;66486;49.992;19.164;2023-03-14T03:32:53;21.20;20.40;14.60
77413;PMS7003;66486;49.992;19.164;2023-03-14T03:35:19;14.00;14.00;9.75
77413;PMS7003;66486;49.992;19.164;2023-03-14T03:37:45;15.80;14.20;8.60
77413;PMS7003;66486;49.992;19.164;2023-03-14T03:40:12;7.00;6.00;4.50
77413;PMS7003;66486;49.992;19.164;2023-03-14T03:42:38;8.60;7.00;6.40
77413;PMS7003;66486;49.992;19.164;2023-03-14T03:45:04;7.00;7.00;6.00
77413;PMS7003;66486;49.992;19.164;2023-03-14T03:47:31;5.20;5.20;3.80
77413;PMS7003;66486;49.992;19.164;2023-03-14T03:49:57;5.60;5.60;3.40
77413;PMS7003;66486;49.992;19.164;2023-03-14T03:52:23;9.60;9.00;7.00
77413;PMS7003;66486;49.992;19.164;2023-03-14T03:54:49;4.00;3.50;3.25
77413;PMS7003;66486;49.992;19.164;2023-03-14T03:57:15;1.40;1.40;1.00
77413;PMS7003;66486;49.992;19.164;2023-03-14T03:59:41;6.50;6.50;4.00
77413;PMS7003;66486;49.992;19.164;2023-03-14T04:02:07;4.80;4.80;3.80
77413;PMS7003;66486;49.992;19.164;2023-03-14T04:04:33;7.00;6.00;5.20
77413;PMS7003;66486;49.992;19.164;2023-03-14T04:06:59;5.60;5.60;3.60
77413;PMS7003;66486;49.992;19.164;2023-03-14T04:09:25;6.00;6.00;4.00
77413;PMS7003;66486;49.992;19.164;2023-03-14T04:11:51;9.60;9.20;7.00
77413;PMS7003;66486;49.992;19.164;2023-03-14T04:14:17;10.50;10.50;9.50
77413;PMS7003;66486;49.992;19.164;2023-03-14T04:16:43;18.00;16.40;12.80
77413;PMS7003;66486;49.992;19.164;2023-03-14T04:19:09;12.60;12.60;9.60
77413;PMS7003;66486;49.992;19.164;2023-03-14T04:21:35;15.00;13.00;11.20
77413;PMS7003;66486;49.992;19.164;2023-03-14T04:24:01;20.50;19.25;11.75
77413;PMS7003;66486;49.992;19.164;2023-03-14T04:26:28;18.40;15.80;12.00
77413;PMS7003;66486;49.992;19.164;2023-03-14T04:28:54;36.75;33.50;23.25
77413;PMS7003;66486;49.992;19.164;2023-03-14T04:31:20;16.60;15.00;5.60
77413;PMS7003;66486;49.992;19.164;2023-03-14T04:33:47;37.00;34.80;22.00
77413;PMS7003;66486;49.992;19.164;2023-03-14T04:36:13;33.25;32.25;16.00
77413;PMS7003;66486;49.992;19.164;2023-03-14T04:38:39;75.40;58.80;34.40
77413;PMS7003;66486;49.992;19.164;2023-03-14T04:41:05;34.25;32.25;18.00
77413;PMS7003;66486;49.992;19.164;2023-03-14T04:43:32;20.20;20.20;13.00
77413;PMS7003;66486;49.992;19.164;2023-03-14T04:45:58;16.80;16.00;12.60
77413;PMS7003;66486;49.992;19.164;2023-03-14T04:48:25;24.60;22.80;16.40
77413;PMS7003;66486;49.992;19.164;2023-03-14T04:50:51;15.80;14.80;9.00
77413;PMS7003;66486;49.992;19.164;2023-03-14T04:53:18;14.40;12.60;9.60
77413;PMS7003;66486;49.992;19.164;2023-03-14T04:55:52;10.80;10.60;7.40
77413;PMS7003;66486;49.992;19.164;2023-03-14T04:58:20;9.00;9.00;6.60
77413;PMS7003;66486;49.992;19.164;2023-03-14T05:00:47;8.60;7.00;4.00
77413;PMS7003;66486;49.992;19.164;2023-03-14T05:03:17;5.60;5.60;4.00
77413;PMS7003;66486;49.992;19.164;2023-03-14T05:05:43;3.40;3.40;3.20
77413;PMS7003;66486;49.992;19.164;2023-03-14T05:08:10;5.20;4.80;4.00
77413;PMS7003;66486;49.992;19.164;2023-03-14T05:10:36;4.50;4.00;4.00
77413;PMS7003;66486;49.992;19.164;2023-03-14T05:13:03;2.20;2.20;0.40
77413;PMS7003;66486;49.992;19.164;2023-03-14T05:15:29;4.40;4.00;3.00
77413;PMS7003;66486;49.992;19.164;2023-03-14T05:17:55;7.20;7.20;5.20
77413;PMS7003;66486;49.992;19.164;2023-03-14T05:20:21;4.00;4.00;3.75
77413;PMS7003;66486;49.992;19.164;2023-03-14T05:22:47;7.00;7.00;6.00
77413;PMS7003;66486;49.992;19.164;2023-03-14T05:25:13;7.00;6.00;4.00
77413;PMS7003;66486;49.992;19.164;2023-03-14T05:27:39;6.00;5.60;4.00
77413;PMS7003;66486;49.992;19.164;2023-03-14T05:30:05;8.75;8.50;5.00
77413;PMS7003;66486;49.992;19.164;2023-03-14T05:32:32;6.40;6.40;4.00
77413;PMS7003;66486;49.992;19.164;2023-03-14T05:34:59;6.00;6.00;4.00
77413;PMS7003;66486;49.992;19.164;2023-03-14T05:37:25;13.60;11.60;8.20
77413;PMS7003;66486;49.992;19.164;2023-03-14T05:39:52;21.20;20.60;10.80
77413;PMS7003;66486;49.992;19.164;2023-03-14T05:42:18;11.60;10.00;7.00
77413;PMS7003;66486;49.992;19.164;2023-03-14T05:44:44;9.40;6.60;6.00
77413;PMS7003;66486;49.992;19.164;2023-03-14T05:47:10;5.20;5.20;4.00
77413;PMS7003;66486;49.992;19.164;2023-03-14T05:49:36;7.40;6.40;6.00
77413;PMS7003;66486;49.992;19.164;2023-03-14T05:52:02;7.00;7.00;6.00
77413;PMS7003;66486;49.992;19.164;2023-03-14T05:54:28;7.00;6.00;6.00
77413;PMS7003;66486;49.992;19.164;2023-03-14T05:56:54;9.60;9.60;7.00
77413;PMS7003;66486;49.992;19.164;2023-03-14T05:59:20;18.00;18.00;13.00
77413;PMS7003;66486;49.992;19.164;2023-03-14T06:01:46;9.00;8.20;6.00
77413;PMS7003;66486;49.992;19.164;2023-03-14T06:04:12;10.00;9.25;7.00
77413;PMS7003;66486;49.992;19.164;2023-03-14T06:06:39;8.40;6.80;4.00
77413;PMS7003;66486;49.992;19.164;2023-03-14T06:09:05;11.20;10.00;7.00
77413;PMS7003;66486;49.992;19.164;2023-03-14T06:11:31;9.00;9.00;7.00
77413;PMS7003;66486;49.992;19.164;2023-03-14T06:13:57;15.00;15.00;9.75
77413;PMS7003;66486;49.992;19.164;2023-03-14T06:16:23;27.00;27.00;15.60
77413;PMS7003;66486;49.992;19.164;2023-03-14T06:18:49;24.50;24.00;15.00
77413;PMS7003;66486;49.992;19.164;2023-03-14T06:21:15;24.80;22.40;13.00
77413;PMS7003;66486;49.992;19.164;2023-03-14T06:23:41;28.50;28.00;16.00
77413;PMS7003;66486;49.992;19.164;2023-03-14T06:26:07;26.60;24.40;15.20
77413;PMS7003;66486;49.992;19.164;2023-03-14T06:28:33;24.00;21.50;13.50
77413;PMS7003;66486;49.992;19.164;2023-03-14T06:30:59;23.60;23.20;15.00
77413;PMS7003;66486;49.992;19.164;2023-03-14T06:33:25;15.60;14.20;8.60
77413;PMS7003;66486;49.992;19.164;2023-03-14T06:35:52;24.60;24.20;15.60
77413;PMS7003;66486;49.992;19.164;2023-03-14T06:38:17;21.25;19.50;12.25
77413;PMS7003;66486;49.992;19.164;2023-03-14T06:40:43;21.60;21.60;15.00
77413;PMS7003;66486;49.992;19.164;2023-03-14T06:43:09;14.50;14.50;7.00
77413;PMS7003;66486;49.992;19.164;2023-03-14T06:45:36;58.60;49.80;29.80
77413;PMS7003;66486;49.992;19.164;2023-03-14T06:48:02;19.40;18.00;11.20
77413;PMS7003;66486;49.992;19.164;2023-03-14T06:50:28;22.80;21.20;14.40
77413;PMS7003;66486;49.992;19.164;2023-03-14T06:52:54;21.60;21.00;10.00
77413;PMS7003;66486;49.992;19.164;2023-03-14T06:55:20;17.60;17.60;12.40
77413;PMS7003;66486;49.992;19.164;2023-03-14T06:57:46;15.00;15.00;9.25
77413;PMS7003;66486;49.992;19.164;2023-03-14T07:00:12;16.20;16.00;11.80
77413;PMS7003;66486;49.992;19.164;2023-03-14T07:02:39;15.60;15.60;11.80
77413;PMS7003;66486;49.992;19.164;2023-03-14T07:05:05;18.80;18.80;11.20
77413;PMS7003;66486;49.992;19.164;2023-03-14T07:07:32;24.20;23.20;14.80
77413;PMS7003;66486;49.992;19.164;2023-03-14T07:09:58;16.00;15.00;11.40
77413;PMS7003;66486;49.992;19.164;2023-03-14T07:12:24;22.00;22.00;16.50
77413;PMS7003;66486;49.992;19.164;2023-03-14T07:14:50;29.20;28.20;19.60
77413;PMS7003;66486;49.992;19.164;2023-03-14T07:17:16;18.50;15.50;9.75
77413;PMS7003;66486;49.992;19.164;2023-03-14T07:19:42;21.00;20.60;13.60
77413;PMS7003;66486;49.992;19.164;2023-03-14T07:22:08;19.60;17.00;10.00
77413;PMS7003;66486;49.992;19.164;2023-03-14T07:24:34;18.20;18.20;11.00
77413;PMS7003;66486;49.992;19.164;2023-03-14T07:27:00;24.00;18.50;14.00
77413;PMS7003;66486;49.992;19.164;2023-03-14T07:29:26;18.20;17.80;11.00
77413;PMS7003;66486;49.992;19.164;2023-03-14T07:31:52;8.00;7.00;4.50
77413;PMS7003;66486;49.992;19.164;2023-03-14T07:34:18;4.00;4.00;2.00
77413;PMS7003;66486;49.992;19.164;2023-03-14T07:36:44;10.40;10.40;6.20
77413;PMS7003;66486;49.992;19.164;2023-03-14T07:39:11;8.00;7.40;5.00
77413;PMS7003;66486;49.992;19.164;2023-03-14T07:41:36;8.25;7.25;6.50
77413;PMS7003;66486;49.992;19.164;2023-03-14T07:44:02;7.60;6.60;4.00
77413;PMS7003;66486;49.992;19.164;2023-03-14T07:46:28;8.00;7.75;7.00
77413;PMS7003;66486;49.992;19.164;2023-03-14T07:48:54;9.20;9.20;7.00
77413;PMS7003;66486;49.992;19.164;2023-03-14T07:51:20;10.00;10.00;6.50
77413;PMS7003;66486;49.992;19.164;2023-03-14T07:53:46;11.60;11.60;9.20
77413;PMS7003;66486;49.992;19.164;2023-03-14T07:56:12;7.25;5.75;1.00
77413;PMS7003;66486;49.992;19.164;2023-03-14T07:58:38;8.20;8.20;7.00
77413;PMS7003;66486;49.992;19.164;2023-03-14T08:01:04;8.50;8.50;7.50
77413;PMS7003;66486;49.992;19.164;2023-03-14T08:03:31;6.60;6.60;5.00
77413;PMS7003;66486;49.992;19.164;2023-03-14T08:05:56;8.00;7.25;5.50
77413;PMS7003;66486;49.992;19.164;2023-03-14T08:08:23;10.80;9.60;7.60
77413;PMS7003;66486;49.992;19.164;2023-03-14T08:10:48;12.25;12.25;10.75
77413;PMS7003;66486;49.992;19.164;2023-03-14T08:13:15;8.00;7.20;6.40
77413;PMS7003;66486;49.992;19.164;2023-03-14T08:15:40;9.00;9.00;7.50
77413;PMS7003;66486;49.992;19.164;2023-03-14T08:18:07;12.00;11.00;9.20
77413;PMS7003;66486;49.992;19.164;2023-03-14T08:20:33;8.50;8.00;7.00
77413;PMS7003;66486;49.992;19.164;2023-03-14T08:23:01;11.60;10.60;7.80
77413;PMS7003;66486;49.992;19.164;2023-03-14T08:25:27;6.80;6.80;5.40
77413;PMS7003;66486;49.992;19.164;2023-03-14T08:27:53;8.00;8.00;5.00
77413;PMS7003;66486;49.992;19.164;2023-03-14T08:30:20;8.20;7.80;7.00
77413;PMS7003;66486;49.992;19.164;2023-03-14T08:32:47;8.20;8.20;5.40
77413;PMS7003;66486;49.992;19.164;2023-03-14T08:35:13;11.80;11.80;8.00
77413;PMS7003;66486;49.992;19.164;2023-03-14T08:37:40;7.00;6.00;5.00
77413;PMS7003;66486;49.992;19.164;2023-03-14T08:40:06;4.20;4.20;4.00
77413;PMS7003;66486;49.992;19.164;2023-03-14T08:42:36;5.00;5.00;4.20
77413;PMS7003;66486;49.992;19.164;2023-03-14T08:45:03;3.60;3.60;1.80
77413;PMS7003;66486;49.992;19.164;2023-03-14T08:47:29;9.40;8.20;7.00
77413;PMS7003;66486;49.992;19.164;2023-03-14T08:49:55;7.20;7.20;5.40
77413;PMS7003;66486;49.992;19.164;2023-03-14T08:52:22;8.00;6.40;5.00
77413;PMS7003;66486;49.992;19.164;2023-03-14T08:54:48;7.00;7.00;5.00
77413;PMS7003;66486;49.992;19.164;2023-03-14T08:57:14;9.00;8.00;6.20
77413;PMS7003;66486;49.992;19.164;2023-03-14T08:59:40;8.00;7.50;7.00
77413;PMS7003;66486;49.992;19.164;2023-03-14T09:02:08;2.00;2.00;1.00
77413;PMS7003;66486;49.992;19.164;2023-03-14T09:04:35;8.20;8.00;7.80
77413;PMS7003;66486;49.992;19.164;2023-03-14T09:07:02;7.40;7.40;6.80
77413;PMS7003;66486;49.992;19.164;2023-03-14T09:09:28;8.40;7.80;6.20
77413;PMS7003;66486;49.992;19.164;2023-03-14T09:11:56;8.40;8.40;6.20
77413;PMS7003;66486;49.992;19.164;2023-03-14T09:14:22;6.20;6.20;4.00
77413;PMS7003;66486;49.992;19.164;2023-03-14T09:16:49;9.00;9.00;8.00
77413;PMS7003;66486;49.992;19.164;2023-03-14T09:19:16;6.80;6.20;5.20
77413;PMS7003;66486;49.992;19.164;2023-03-14T09:21:42;8.00;8.00;5.60
77413;PMS7003;66486;49.992;19.164;2023-03-14T09:24:08;5.00;4.60;4.00
77413;PMS7003;66486;49.992;19.164;2023-03-14T09:26:34;2.00;2.00;0.20
77413;PMS7003;66486;49.992;19.164;2023-03-14T09:29:00;8.00;8.00;6.25
77413;PMS7003;66486;49.992;19.164;2023-03-14T09:31:26;11.80;11.20;8.00
77413;PMS7003;66486;49.992;19.164;2023-03-14T09:33:53;9.40;8.20;7.20
77413;PMS7003;66486;49.992;19.164;2023-03-14T09:36:19;8.00;6.00;5.00
77413;PMS7003;66486;49.992;19.164;2023-03-14T09:38:45;8.50;8.00;7.00
77413;PMS7003;66486;49.992;19.164;2023-03-14T09:41:44;5.40;5.40;5.00
77413;PMS7003;66486;49.992;19.164;2023-03-14T09:44:10;10.25;9.50;8.00
77413;PMS7003;66486;49.992;19.164;2023-03-14T09:46:42;6.00;6.00;6.00
77413;PMS7003;66486;49.992;19.164;2023-03-14T09:49:16;3.00;3.00;3.00
77413;PMS7003;66486;49.992;19.164;2023-03-14T09:51:54;7.50;7.50;5.75
77413;PMS7003;66486;49.992;19.164;2023-03-14T09:54:35;5.75;5.50;5.25
77413;PMS7003;66486;49.992;19.164;2023-03-14T09:57:05;8.00;8.00;7.20
77413;PMS7003;66486;49.992;19.164;2023-03-14T09:59:36;4.75;4.75;3.50
77413;PMS7003;66486;49.992;19.164;2023-03-14T10:02:19;8.00;8.00;6.00
77413;PMS7003;66486;49.992;19.164;2023-03-14T10:04:51;10.00;9.25;7.50
77413;PMS7003;66486;49.992;19.164;2023-03-14T10:07:27;9.60;9.00;7.60
77413;PMS7003;66486;49.992;19.164;2023-03-14T10:09:54;9.00;9.00;8.00
77413;PMS7003;66486;49.992;19.164;2023-03-14T10:12:30;7.75;7.75;6.50
77413;PMS7003;66486;49.992;19.164;2023-03-14T10:14:57;8.20;8.20;6.00
77413;PMS7003;66486;49.992;19.164;2023-03-14T10:17:41;9.25;8.00;7.00
77413;PMS7003;66486;49.992;19.164;2023-03-14T10:21:01;8.00;8.00;6.00
77413;PMS7003;66486;49.992;19.164;2023-03-14T10:23:44;5.50;5.50;4.00
77413;PMS7003;66486;49.992;19.164;2023-03-14T10:28:45;5.25;4.50;4.50
77413;PMS7003;66486;49.992;19.164;2023-03-14T10:31:13;6.00;6.00;5.00
77413;PMS7003;66486;49.992;19.164;2023-03-14T10:33:40;8.00;8.00;5.60
77413;PMS7003;66486;49.992;19.164;2023-03-14T10:39:45;5.40;5.40;5.00
77413;PMS7003;66486;49.992;19.164;2023-03-14T10:42:01;6.80;6.80;5.20
77413;PMS7003;66486;49.992;19.164;2023-03-14T10:44:30;8.40;8.40;6.80
77413;PMS7003;66486;49.992;19.164;2023-03-14T10:47:01;8.40;8.40;7.60
77413;PMS7003;66486;49.992;19.164;2023-03-14T10:49:34;7.20;7.20;6.00
77413;PMS7003;66486;49.992;19.164;2023-03-14T10:54:34;10.80;9.00;6.00
77413;PMS7003;66486;49.992;19.164;2023-03-14T10:57:00;6.50;6.50;5.25
77413;PMS7003;66486;49.992;19.164;2023-03-14T10:59:39;7.40;5.20;4.00
77413;PMS7003;66486;49.992;19.164;2023-03-14T11:05:15;5.40;5.40;4.60
77413;PMS7003;66486;49.992;19.164;2023-03-14T11:07:52;8.40;8.00;7.00
77413;PMS7003;66486;49.992;19.164;2023-03-14T11:10:33;4.80;4.20;1.60
77413;PMS7003;66486;49.992;19.164;2023-03-14T11:13:04;4.20;4.20;2.40
77413;PMS7003;66486;49.992;19.164;2023-03-14T11:15:58;7.00;7.00;6.40
77413;PMS7003;66486;49.992;19.164;2023-03-14T11:18:56;111.40;86.40;42.80
77413;PMS7003;66486;49.992;19.164;2023-03-14T11:21:29;12.40;12.20;8.80
77413;PMS7003;66486;49.992;19.164;2023-03-14T11:24:33;12.00;11.00;7.20
77413;PMS7003;66486;49.992;19.164;2023-03-14T11:27:22;5.00;5.00;4.00
77413;PMS7003;66486;49.992;19.164;2023-03-14T11:38:07;9.40;9.00;5.80
77413;PMS7003;66486;49.992;19.164;2023-03-14T11:40:39;9.00;9.00;7.80
77413;PMS7003;66486;49.992;19.164;2023-03-14T11:43:26;8.00;8.00;6.20
77413;PMS7003;66486;49.992;19.164;2023-03-14T11:46:21;7.60;7.60;5.20
77413;PMS7003;66486;49.992;19.164;2023-03-14T11:51:56;9.50;9.50;8.25
77413;PMS7003;66486;49.992;19.164;2023-03-14T11:57:10;8.60;8.20;6.20
77413;PMS7003;66486;49.992;19.164;2023-03-14T12:00:00;9.00;9.00;7.80
77413;PMS7003;66486;49.992;19.164;2023-03-14T12:02:42;3.00;2.80;2.80
77413;PMS7003;66486;49.992;19.164;2023-03-14T12:10:54;9.00;9.00;6.80
77413;PMS7003;66486;49.992;19.164;2023-03-14T12:13:24;11.00;10.20;8.00
77413;PMS7003;66486;49.992;19.164;2023-03-14T12:15:58;8.60;7.40;5.60
77413;PMS7003;66486;49.992;19.164;2023-03-14T12:18:38;9.00;9.00;8.00
77413;PMS7003;66486;49.992;19.164;2023-03-14T12:21:07;8.00;8.00;6.40
77413;PMS7003;66486;49.992;19.164;2023-03-14T12:23:43;15.20;14.40;9.00
77413;PMS7003;66486;49.992;19.164;2023-03-14T12:26:21;15.00;15.00;10.20
77413;PMS7003;66486;49.992;19.164;2023-03-14T12:28:52;15.40;15.00;12.00
77413;PMS7003;66486;49.992;19.164;2023-03-14T12:36:49;7.00;7.00;5.60
77413;PMS7003;66486;49.992;19.164;2023-03-14T12:39:40;9.20;8.40;7.00
77413;PMS7003;66486;49.992;19.164;2023-03-14T12:44:48;8.75;8.75;7.00
77413;PMS7003;66486;49.992;19.164;2023-03-14T12:49:44;7.60;7.60;6.20
77413;PMS7003;66486;49.992;19.164;2023-03-14T12:52:15;11.60;8.00;8.00
77413;PMS7003;66486;49.992;19.164;2023-03-14T13:00:19;4.20;4.20;2.40
77413;PMS7003;66486;49.992;19.164;2023-03-14T13:02:48;8.00;8.00;7.20
77413;PMS7003;66486;49.992;19.164;2023-03-14T13:05:20;7.80;6.00;4.60
77413;PMS7003;66486;49.992;19.164;2023-03-14T13:12:51;9.00;7.80;5.80
77413;PMS7003;66486;49.992;19.164;2023-03-14T13:18:03;4.60;4.60;3.60
77413;PMS7003;66486;49.992;19.164;2023-03-14T13:20:37;6.20;6.20;5.40
77413;PMS7003;66486;49.992;19.164;2023-03-14T13:23:19;4.40;4.00;2.00
77413;PMS7003;66486;49.992;19.164;2023-03-14T13:25:46;5.20;4.20;4.00
77413;PMS7003;66486;49.992;19.164;2023-03-14T13:28:13;5.00;4.00;4.00
77413;PMS7003;66486;49.992;19.164;2023-03-14T13:30:41;2.00;2.00;1.80
77413;PMS7003;66486;49.992;19.164;2023-03-14T13:33:19;2.00;2.00;1.20
77413;PMS7003;66486;49.992;19.164;2023-03-14T13:35:47;4.00;2.00;2.00
77413;PMS7003;66486;49.992;19.164;2023-03-14T13:38:16;6.20;6.20;3.60
77413;PMS7003;66486;49.992;19.164;2023-03-14T13:40:46;4.00;4.00;4.00
77413;PMS7003;66486;49.992;19.164;2023-03-14T13:43:25;5.80;4.40;2.40
77413;PMS7003;66486;49.992;19.164;2023-03-14T13:46:15;3.20;3.20;1.00
77413;PMS7003;66486;49.992;19.164;2023-03-14T13:48:44;4.60;4.00;2.40
77413;PMS7003;66486;49.992;19.164;2023-03-14T13:51:19;7.00;7.00;5.00
77413;PMS7003;66486;49.992;19.164;2023-03-14T13:53:47;5.00;5.00;5.00
77413;PMS7003;66486;49.992;19.164;2023-03-14T13:56:15;2.00;2.00;1.60
77413;PMS7003;66486;49.992;19.164;2023-03-14T13:58:43;6.60;6.60;5.00
77413;PMS7003;66486;49.992;19.164;2023-03-14T14:01:25;11.60;10.60;7.40
77413;PMS7003;66486;49.992;19.164;2023-03-14T14:03:58;7.00;5.00;4.00
77413;PMS7003;66486;49.992;19.164;2023-03-14T14:06:32;5.40;5.40;4.20
77413;PMS7003;66486;49.992;19.164;2023-03-14T14:09:03;7.00;5.80;5.00
77413;PMS7003;66486;49.992;19.164;2023-03-14T14:11:56;7.00;5.00;5.00
77413;PMS7003;66486;49.992;19.164;2023-03-14T14:16:55;4.40;4.40;4.00
77413;PMS7003;66486;49.992;19.164;2023-03-14T14:19:24;3.80;3.80;2.80
77413;PMS7003;66486;49.992;19.164;2023-03-14T14:21:53;7.60;5.80;5.00
77413;PMS7003;66486;49.992;19.164;2023-03-14T14:24:21;2.60;1.40;0.00
77413;PMS7003;66486;49.992;19.164;2023-03-14T14:26:53;7.20;7.20;4.80
77413;PMS7003;66486;49.992;19.164;2023-03-14T14:29:28;2.00;2.00;1.00
77413;PMS7003;66486;49.992;19.164;2023-03-14T14:32:09;4.00;4.00;3.80
77413;PMS7003;66486;49.992;19.164;2023-03-14T14:34:58;7.60;7.60;6.60
77413;PMS7003;66486;49.992;19.164;2023-03-14T14:39:54;5.00;5.00;4.00
77413;PMS7003;66486;49.992;19.164;2023-03-14T14:42:24;3.80;3.80;3.20
77413;PMS7003;66486;49.992;19.164;2023-03-14T14:44:52;4.20;4.20;4.00
77413;PMS7003;66486;49.992;19.164;2023-03-14T14:47:20;3.20;0.00;0.00
77413;PMS7003;66486;49.992;19.164;2023-03-14T14:49:48;4.20;4.00;3.80
77413;PMS7003;66486;49.992;19.164;2023-03-14T14:52:20;1.20;1.20;1.00
77413;PMS7003;66486;49.992;19.164;2023-03-14T14:54:59;3.00;3.00;2.20
77413;PMS7003;66486;49.992;19.164;2023-03-14T14:57:27;3.80;3.80;3.20
77413;PMS7003;66486;49.992;19.164;2023-03-14T15:00:09;3.60;2.00;1.20
77413;PMS7003;66486;49.992;19.164;2023-03-14T15:02:46;4.00;4.00;2.20
77413;PMS7003;66486;49.992;19.164;2023-03-14T15:05:15;10.40;10.00;8.00
77413;PMS7003;66486;49.992;19.164;2023-03-14T15:07:43;5.40;5.40;4.40
77413;PMS7003;66486;49.992;19.164;2023-03-14T15:10:10;12.00;12.00;7.00
77413;PMS7003;66486;49.992;19.164;2023-03-14T15:12:37;11.80;9.20;7.00
77413;PMS7003;66486;49.992;19.164;2023-03-14T15:15:03;14.00;13.40;10.80